Time;durP1;ratioP1;P1;durP2;ratioP2;P2;SDS_P1;SDS_P2;PMS_P1;PMS_P2;Temp;Humidity;BMP_temperature;BMP_pressure;BME280_temperature;BME280_humidity;BME280_pressure;Samples;Min_cycle;Max_cycle;Signal;HPM_P1;HPM_P2
2021/11/24 00:00:28;;;;;;;17.25;9.23;;;-2.00;99.90;;;;;;5037066;28;20018;-78
2021/11/24 00:02:54;;;;;;;18.60;9.43;;;-2.10;99.90;;;;;;5037372;28;20103;-78
2021/11/24 00:05:20;;;;;;;15.95;9.35;;;-2.20;99.90;;;;;;5038199;28;20029;-78
2021/11/24 00:07:45;;;;;;;16.77;9.85;;;-2.10;99.90;;;;;;5037902;28;20437;-78
2021/11/24 00:10:13;;;;;;;13.32;7.95;;;-2.30;99.90;;;;;;5027538;28;20045;-78
2021/11/24 00:12:39;;;;;;;20.00;9.85;;;-2.30;99.90;;;;;;5018715;28;20037;-78
2021/11/24 00:15:09;;;;;;;17.13;10.43;;;-2.20;99.90;;;;;;5018716;28;20038;-78
2021/11/24 00:17:35;;;;;;;21.70;10.70;;;-2.00;99.90;;;;;;5017807;28;20026;-78
2021/11/24 00:20:01;;;;;;;14.15;10.23;;;-1.90;99.90;;;;;;5007445;28;20405;-79
2021/11/24 00:22:27;;;;;;;15.82;10.13;;;-1.90;99.90;;;;;;5038750;28;20096;-78
2021/11/24 00:24:53;;;;;;;18.30;10.50;;;-1.70;99.90;;;;;;5019622;28;20031;-79
2021/11/24 00:27:18;;;;;;;18.90;10.50;;;-1.50;99.90;;;;;;5037381;28;20021;-79
2021/11/24 00:29:44;;;;;;;20.65;10.98;;;-1.50;99.90;;;;;;5030914;28;20033;-79
2021/11/24 00:32:10;;;;;;;18.10;11.23;;;-1.40;99.90;;;;;;5036568;28;20026;-79
2021/11/24 00:34:35;;;;;;;17.15;10.70;;;-1.20;99.90;;;;;;5036882;28;20498;-79
2021/11/24 00:37:02;;;;;;;15.75;9.43;;;-1.20;99.90;;;;;;5019028;28;20056;-79
2021/11/24 00:39:27;;;;;;;19.75;10.35;;;-1.10;99.90;;;;;;5035903;28;20029;-79
2021/11/24 00:41:53;;;;;;;16.35;10.55;;;-1.00;99.90;;;;;;5037093;28;20029;-79
2021/11/24 00:44:19;;;;;;;19.92;9.60;;;-1.10;99.90;;;;;;5037137;28;20036;-79
2021/11/24 00:46:45;;;;;;;13.65;9.95;;;-1.00;99.90;;;;;;5037395;28;20025;-78
2021/11/24 00:49:11;;;;;;;16.92;9.50;;;0.50;99.90;;;;;;5028048;28;20036;-79
2021/11/24 00:51:37;;;;;;;14.32;9.85;;;-1.10;99.90;;;;;;5018784;28;20022;-79
2021/11/24 00:54:03;;;;;;;20.75;10.27;;;-1.10;99.90;;;;;;5019571;28;20081;-79
2021/11/24 00:56:29;;;;;;;19.10;9.00;;;-1.10;99.90;;;;;;5019174;28;20030;-79
2021/11/24 00:58:55;;;;;;;18.00;9.20;;;-0.50;99.90;;;;;;5006380;28;20394;-79
2021/11/24 01:01:21;;;;;;;16.08;9.55;;;-0.90;99.90;;;;;;5038002;28;20036;-79
2021/11/24 01:03:47;;;;;;;13.75;8.35;;;-0.90;99.90;;;;;;5038567;28;20018;-79
2021/11/24 01:06:12;;;;;;;14.52;9.00;;;-0.90;99.90;;;;;;5039158;28;20445;-79
2021/11/24 01:08:38;;;;;;;15.23;8.55;;;-1.00;99.90;;;;;;5036887;28;20045;-79
2021/11/24 01:11:04;;;;;;;17.80;9.05;;;-0.80;99.90;;;;;;5040667;28;20061;-79
2021/11/24 01:13:31;;;;;;;13.88;8.65;;;-0.80;99.90;;;;;;5040166;28;20030;-80
2021/11/24 01:15:57;;;;;;;19.92;9.05;;;-0.70;99.90;;;;;;5040850;28;20040;-79
2021/11/24 01:18:23;;;;;;;12.95;8.23;;;-0.80;99.90;;;;;;5025933;28;20033;-80
2021/11/24 01:20:49;;;;;;;12.98;8.07;;;-0.80;99.90;;;;;;5033927;28;20022;-79
2021/11/24 01:23:16;;;;;;;18.23;8.45;;;-0.90;99.90;;;;;;5033028;28;20068;-79
2021/11/24 01:25:42;;;;;;;14.23;8.68;;;-1.00;99.90;;;;;;5013627;28;20160;-80
2021/11/24 01:28:08;;;;;;;16.13;8.45;;;-1.10;99.90;;;;;;5014734;28;20117;-80
2021/11/24 01:30:34;;;;;;;16.05;8.73;;;-1.20;99.90;;;;;;5014114;28;20482;-80
2021/11/24 01:33:00;;;;;;;18.85;9.35;;;0.80;99.90;;;;;;5014736;28;20109;-80
2021/11/24 01:35:26;;;;;;;13.75;8.07;;;-1.20;99.90;;;;;;4997390;28;20127;-80
2021/11/24 01:37:52;;;;;;;12.40;7.82;;;-1.30;99.90;;;;;;4997128;28;20038;-80
2021/11/24 01:40:18;;;;;;;15.27;8.57;;;-1.40;99.90;;;;;;5016969;28;20042;-80
2021/11/24 01:42:44;;;;;;;17.00;9.35;;;-1.50;99.90;;;;;;5014989;28;20030;-80
2021/11/24 01:45:11;;;;;;;16.50;8.98;;;-1.60;99.90;;;;;;5033318;28;20093;-80
2021/11/24 01:47:37;;;;;;;13.43;8.15;;;-1.70;99.90;;;;;;5034946;28;20032;-80
2021/11/24 01:50:04;;;;;;;13.45;8.23;;;-1.70;99.90;;;;;;5033493;28;20490;-80
2021/11/24 01:52:32;;;;;;;14.98;9.10;;;-1.80;99.90;;;;;;5016761;28;20064;-80
2021/11/24 01:54:59;;;;;;;15.15;8.65;;;-1.80;99.90;;;;;;5012864;28;20164;-80
2021/11/24 01:57:27;;;;;;;16.70;8.98;;;-1.80;99.90;;;;;;5013282;28;20026;-80
2021/11/24 01:59:54;;;;;;;13.95;8.50;;;-1.80;99.90;;;;;;5018225;28;20022;-80
2021/11/24 02:02:19;;;;;;;19.33;10.05;;;-1.90;99.90;;;;;;5013640;28;20022;-80
2021/11/24 02:04:45;;;;;;;16.92;9.00;;;-2.00;99.90;;;;;;5013363;28;20038;-80
2021/11/24 02:07:11;;;;;;;20.33;9.43;;;-2.20;99.90;;;;;;5014048;28;20072;-80
2021/11/24 02:09:37;;;;;;;19.33;9.95;;;-2.20;99.90;;;;;;5013200;28;20026;-80
2021/11/24 02:12:03;;;;;;;19.65;9.63;;;-2.40;99.90;;;;;;5013686;28;20049;-80
2021/11/24 02:14:29;;;;;;;19.88;10.65;;;-2.40;99.90;;;;;;4990459;28;20486;-80
2021/11/24 02:16:55;;;;;;;21.10;10.88;;;-2.70;99.90;;;;;;5033099;28;20052;-80
2021/11/24 02:19:22;;;;;;;20.33;10.73;;;-1.80;99.90;;;;;;5030069;28;20057;-80
2021/11/24 02:21:50;;;;;;;19.15;11.43;;;-2.50;99.90;;;;;;5033818;28;20097;-80
2021/11/24 02:24:17;;;;;;;22.80;11.02;;;-2.30;99.90;;;;;;5033385;28;20033;-80
2021/11/24 02:26:43;;;;;;;16.48;10.65;;;-2.30;99.90;;;;;;5035728;28;20113;-80
2021/11/24 02:29:09;;;;;;;24.80;12.05;;;-2.40;99.90;;;;;;5027804;28;20517;-80
2021/11/24 02:31:34;;;;;;;17.75;10.63;;;-2.30;99.90;;;;;;5019441;28;20030;-79
2021/11/24 02:34:00;;;;;;;20.70;11.80;;;-2.30;99.90;;;;;;5019274;28;20049;-79
2021/11/24 02:36:29;;;;;;;19.05;11.23;;;-2.10;99.90;;;;;;5019328;28;20026;-79
2021/11/24 02:38:55;;;;;;;21.27;11.88;;;-2.00;99.90;;;;;;5018964;28;20108;-79
2021/11/24 02:41:21;;;;;;;19.52;11.63;;;-1.90;99.90;;;;;;5019171;28;20022;-79
2021/11/24 02:43:47;;;;;;;18.60;11.23;;;-1.90;99.90;;;;;;5020278;28;20415;-79
2021/11/24 02:46:12;;;;;;;16.50;10.43;;;-1.90;99.90;;;;;;5020346;28;20030;-79
2021/11/24 02:48:38;;;;;;;21.83;11.60;;;-2.00;99.90;;;;;;5020210;28;20030;-79
2021/11/24 02:51:04;;;;;;;23.73;11.40;;;-1.90;99.90;;;;;;5019995;28;20038;-79
2021/11/24 02:53:33;;;;;;;17.85;11.23;;;-1.90;99.90;;;;;;5020094;28;20030;-79
2021/11/24 02:55:59;;;;;;;18.08;11.40;;;-2.00;99.90;;;;;;5019958;28;20041;-79
2021/11/24 02:58:25;;;;;;;18.80;10.73;;;-1.90;99.90;;;;;;5032311;28;20025;-79
2021/11/24 03:00:56;;;;;;;21.08;11.75;;;-1.70;99.90;;;;;;5019586;28;20037;-79
2021/11/24 03:03:21;;;;;;;19.15;10.82;;;-1.80;99.90;;;;;;5019941;28;20022;-79
2021/11/24 03:05:47;;;;;;;16.38;10.27;;;-1.80;99.90;;;;;;5021335;28;20034;-79
2021/11/24 03:08:13;;;;;;;19.08;11.57;;;-1.80;99.90;;;;;;5024178;28;20022;-79
2021/11/24 03:10:39;;;;;;;20.58;12.32;;;-1.60;99.90;;;;;;5017940;28;20060;-78
2021/11/24 03:13:05;;;;;;;17.38;11.52;;;-1.60;99.90;;;;;;5018437;28;20430;-79
2021/11/24 03:15:31;;;;;;;16.65;11.32;;;-1.70;99.90;;;;;;5018784;28;20088;-79
2021/11/24 03:17:57;;;;;;;21.13;12.20;;;-1.70;99.90;;;;;;5030081;28;20080;-78
2021/11/24 03:20:26;;;;;;;16.38;10.95;;;-1.70;99.90;;;;;;5017550;28;20026;-78
2021/11/24 03:22:53;;;;;;;20.58;11.85;;;-1.70;99.90;;;;;;5019857;28;20050;-79
2021/11/24 03:25:18;;;;;;;21.50;11.48;;;-1.80;99.90;;;;;;5020117;28;20025;-79
2021/11/24 03:27:44;;;;;;;18.17;10.93;;;-2.00;99.90;;;;;;5020983;28;20034;-78
2021/11/24 03:30:22;;;;;;;17.90;11.27;;;-2.10;99.90;;;;;;5037048;28;20313;-78
2021/11/24 03:32:51;;;;;;;16.15;10.90;;;-2.30;99.90;;;;;;5037854;28;20060;-78
2021/11/24 03:35:18;;;;;;;18.20;10.43;;;-2.30;99.90;;;;;;5037742;28;20100;-78
2021/11/24 03:37:44;;;;;;;18.10;10.82;;;-2.50;99.90;;;;;;5035607;28;20090;-78
2021/11/24 03:40:12;;;;;;;17.38;10.85;;;-2.50;99.90;;;;;;5018426;28;20087;-78
2021/11/24 03:42:42;;;;;;;24.98;10.77;;;-2.40;99.90;;;;;;5020183;28;20034;-78
2021/11/24 03:45:08;;;;;;;26.67;13.80;;;-2.50;99.90;;;;;;5016915;28;20376;-78
2021/11/24 03:47:34;;;;;;;25.05;14.65;;;-2.20;99.90;;;;;;5017662;28;20113;-78
2021/11/24 03:49:59;;;;;;;28.17;15.18;;;-1.90;99.90;;;;;;5034055;28;20450;-78
2021/11/24 03:52:25;;;;;;;26.33;15.45;;;-1.80;99.90;;;;;;5038039;28;20042;-78
2021/11/24 03:54:51;;;;;;;24.05;13.90;;;-1.70;99.90;;;;;;5019964;28;20057;-78
2021/11/24 03:57:16;;;;;;;24.70;14.35;;;-1.70;99.90;;;;;;5037842;28;20398;-78
2021/11/24 03:59:42;;;;;;;25.25;15.38;;;-1.60;99.90;;;;;;5036090;28;20044;-78
2021/11/24 04:02:07;;;;;;;23.25;15.48;;;-1.60;99.90;;;;;;5036224;28;20028;-78
2021/11/24 04:04:33;;;;;;;27.40;15.18;;;-1.70;99.90;;;;;;5036819;28;20455;-78
2021/11/24 04:07:01;;;;;;;25.13;14.82;;;-1.80;99.90;;;;;;5036367;28;20071;-78
2021/11/24 04:09:27;;;;;;;27.27;14.50;;;-2.00;99.90;;;;;;5029559;28;20045;-78
2021/11/24 04:11:52;;;;;;;33.65;16.17;;;-1.90;99.90;;;;;;5015670;28;20041;-78
2021/11/24 04:14:18;;;;;;;27.77;15.73;;;-1.70;99.90;;;;;;5015994;28;20133;-78
2021/11/24 04:16:44;;;;;;;29.40;15.80;;;-0.80;99.90;;;;;;5016074;28;20084;-78
2021/11/24 04:19:09;;;;;;;30.33;17.23;;;-1.50;99.90;;;;;;5024256;28;20041;-78
2021/11/24 04:21:35;;;;;;;26.83;16.45;;;-1.30;99.90;;;;;;5018802;28;20030;-78
2021/11/24 04:24:01;;;;;;;25.20;15.77;;;-1.30;99.90;;;;;;5035853;28;20121;-78
2021/11/24 04:26:27;;;;;;;24.02;15.65;;;-1.30;99.90;;;;;;5037448;28;20079;-78
2021/11/24 04:28:53;;;;;;;30.73;15.45;;;-1.20;99.90;;;;;;5036615;28;20115;-79
2021/11/24 04:31:18;;;;;;;23.40;14.85;;;-1.10;99.90;;;;;;5038977;28;20025;-78
2021/11/24 04:33:44;;;;;;;27.48;13.88;;;-1.10;99.90;;;;;;5038323;28;20029;-78
2021/11/24 04:36:09;;;;;;;24.67;13.70;;;-1.10;99.90;;;;;;5038109;28;20029;-79
2021/11/24 04:38:35;;;;;;;23.65;14.73;;;-0.90;99.90;;;;;;5036586;28;20048;-78
2021/11/24 04:41:01;;;;;;;24.85;13.30;;;-0.70;99.90;;;;;;5021294;28;20026;-78
2021/11/24 04:43:30;;;;;;;19.25;12.18;;;-1.00;99.90;;;;;;5021733;28;20513;-78
2021/11/24 04:45:57;;;;;;;18.17;11.57;;;-1.00;99.90;;;;;;5039427;28;20018;-79
2021/11/24 04:48:22;;;;;;;19.30;11.07;;;-1.00;99.90;;;;;;5039427;28;20032;-79
2021/11/24 04:50:48;;;;;;;21.50;11.20;;;-1.00;99.90;;;;;;4999843;28;20029;-78
2021/11/24 04:53:14;;;;;;;20.40;11.10;;;-0.90;99.90;;;;;;5016482;28;20513;-81
2021/11/24 04:55:40;;;;;;;19.23;11.60;;;-1.00;99.90;;;;;;5032484;28;20087;-81
2021/11/24 04:58:06;;;;;;;19.92;11.95;;;-0.90;99.90;;;;;;5018353;28;20029;-80
2021/11/24 05:00:31;;;;;;;20.27;11.13;;;-0.80;99.90;;;;;;5037110;28;20473;-81
2021/11/24 05:02:57;;;;;;;17.63;11.93;;;-0.90;99.90;;;;;;5016159;28;20037;-86
2021/11/24 05:05:28;;;;;;;18.58;12.40;;;-0.20;99.90;;;;;;5017147;28;20443;-81
2021/11/24 05:07:54;;;;;;;20.80;11.50;;;-0.80;99.90;;;;;;5039799;28;20026;-80
2021/11/24 05:10:20;;;;;;;17.25;10.98;;;-0.90;99.90;;;;;;5034877;28;20044;-81
2021/11/24 05:12:46;;;;;;;17.55;10.77;;;-1.00;99.90;;;;;;5037052;28;20486;-81
2021/11/24 05:15:21;;;;;;;20.95;12.10;;;-0.90;99.90;;;;;;5039100;28;20083;-80
2021/11/24 05:17:52;;;;;;;15.48;10.20;;;-1.10;99.90;;;;;;5038523;28;20048;-80
2021/11/24 05:20:19;;;;;;;18.92;10.45;;;-1.00;99.90;;;;;;5016263;28;20026;-80
2021/11/24 05:22:48;;;;;;;20.88;11.95;;;-1.10;99.90;;;;;;5018465;28;20041;-81
2021/11/24 05:25:13;;;;;;;18.75;11.73;;;-1.00;99.90;;;;;;5018263;28;20030;-79
2021/11/24 05:27:39;;;;;;;17.05;10.38;;;-1.00;99.90;;;;;;5017659;28;20044;-80
2021/11/24 05:30:05;;;;;;;19.70;11.80;;;-1.00;99.90;;;;;;5030459;28;20041;-79
2021/11/24 05:32:31;;;;;;;16.13;10.52;;;-1.10;99.90;;;;;;5036814;28;20033;-78
2021/11/24 05:34:57;;;;;;;21.45;12.48;;;-1.20;99.90;;;;;;5021207;28;20133;-78
2021/11/24 05:37:22;;;;;;;17.17;10.73;;;-1.10;99.90;;;;;;5017097;28;20479;-78
2021/11/24 05:39:48;;;;;;;22.17;12.07;;;-1.30;99.90;;;;;;5034080;28;20048;-78
2021/11/24 05:42:13;;;;;;;20.67;12.48;;;-1.20;99.90;;;;;;5038091;28;20031;-78
2021/11/24 05:44:39;;;;;;;26.70;12.57;;;-1.30;99.90;;;;;;5037363;28;20034;-78
2021/11/24 05:47:11;;;;;;;24.23;13.30;;;-1.20;99.90;;;;;;5039219;28;20036;-79
2021/11/24 05:49:37;;;;;;;22.20;11.30;;;-1.30;99.90;;;;;;5037008;28;20510;-79
2021/11/24 05:52:04;;;;;;;19.70;11.85;;;-1.30;99.90;;;;;;5019996;28;20069;-79
2021/11/24 05:54:29;;;;;;;16.20;11.02;;;-1.20;99.90;;;;;;5020842;28;20028;-79
2021/11/24 05:56:55;;;;;;;15.65;10.05;;;-1.20;99.90;;;;;;5020479;28;20038;-79
2021/11/24 05:59:21;;;;;;;19.42;11.88;;;-1.20;99.90;;;;;;5015610;28;20875;-78
2021/11/24 06:01:47;;;;;;;17.73;10.70;;;-1.20;99.90;;;;;;5040656;28;20025;-79
2021/11/24 06:04:12;;;;;;;16.17;10.18;;;-1.10;99.90;;;;;;5040170;28;20021;-78
2021/11/24 06:06:38;;;;;;;18.02;9.50;;;-1.30;99.90;;;;;;5038522;28;20079;-78
2021/11/24 06:09:05;;;;;;;20.77;10.52;;;-1.30;99.90;;;;;;5034954;28;20505;-78
2021/11/24 06:11:31;;;;;;;15.90;10.00;;;-1.30;99.90;;;;;;5017072;28;20034;-79
2021/11/24 06:13:57;;;;;;;16.92;9.32;;;-1.20;99.90;;;;;;5019145;28;20034;-78
2021/11/24 06:16:23;;;;;;;18.38;10.02;;;-1.30;99.90;;;;;;5038365;28;20026;-78
2021/11/24 06:18:49;;;;;;;18.02;9.35;;;-1.40;99.90;;;;;;5041203;28;20085;-78
2021/11/24 06:21:21;;;;;;;20.05;10.07;;;-1.40;99.90;;;;;;5042040;28;20033;-78
2021/11/24 06:23:48;;;;;;;20.38;9.48;;;-1.40;99.90;;;;;;5037840;28;20025;-78
2021/11/24 06:26:15;;;;;;;16.20;10.82;;;-1.40;99.90;;;;;;5042205;28;20035;-78
2021/11/24 06:28:43;;;;;;;18.13;10.73;;;-1.30;99.90;;;;;;5041688;28;20048;-78
2021/11/24 06:31:09;;;;;;;20.27;12.00;;;-1.30;99.90;;;;;;5041921;28;20029;-78
2021/11/24 06:33:35;;;;;;;20.42;11.45;;;-1.20;99.90;;;;;;5031263;28;20490;-78
2021/11/24 06:36:00;;;;;;;24.27;11.18;;;-1.10;99.90;;;;;;5023203;28;20030;-78
2021/11/24 06:38:26;;;;;;;20.10;11.38;;;-0.90;99.90;;;;;;5024699;28;20372;-79
2021/11/24 06:40:51;;;;;;;18.55;11.95;;;-1.80;99.90;;;;;;5020648;28;20030;-78
2021/11/24 06:43:17;;;;;;;21.75;12.18;;;-1.00;99.90;;;;;;5021013;28;20030;-79
2021/11/24 06:45:44;;;;;;;18.60;11.27;;;-1.00;99.90;;;;;;5020789;28;20030;-79
2021/11/24 06:48:10;;;;;;;23.10;12.68;;;-0.90;99.90;;;;;;5026080;28;20053;-78
2021/11/24 06:50:35;;;;;;;18.27;10.82;;;-0.90;99.90;;;;;;5042964;28;20041;-79
2021/11/24 06:53:02;;;;;;;25.65;13.63;;;-0.80;99.90;;;;;;5038065;28;20037;-78
2021/11/24 06:55:27;;;;;;;26.45;14.18;;;-0.50;99.90;;;;;;5035348;28;20045;-79
2021/11/24 06:57:53;;;;;;;23.25;13.55;;;-0.50;99.90;;;;;;5022912;28;20033;-79
2021/11/24 07:00:19;;;;;;;20.17;12.05;;;-0.30;99.90;;;;;;5020160;28;20450;-79
2021/11/24 07:02:45;;;;;;;27.83;13.82;;;-0.20;99.90;;;;;;5034499;28;20026;-79
2021/11/24 07:05:11;;;;;;;26.90;14.25;;;0.00;99.90;;;;;;5036281;28;20036;-78
2021/11/24 07:07:37;;;;;;;26.00;13.93;;;0.10;99.90;;;;;;5039533;28;20026;-79
2021/11/24 07:10:06;;;;;;;26.95;14.45;;;0.10;99.90;;;;;;5038767;28;20036;-78
2021/11/24 07:12:32;;;;;;;28.30;14.25;;;0.20;99.90;;;;;;5041028;28;20099;-79
2021/11/24 07:14:58;;;;;;;22.98;14.30;;;0.20;99.90;;;;;;5045980;28;20041;-79
2021/11/24 07:17:25;;;;;;;25.98;14.55;;;0.20;99.90;;;;;;5048775;28;20032;-79
2021/11/24 07:19:50;;;;;;;26.23;13.55;;;0.30;99.90;;;;;;5035996;28;20124;-78
2021/11/24 07:22:16;;;;;;;26.45;13.43;;;0.20;99.90;;;;;;5045944;28;20497;-79
2021/11/24 07:24:42;;;;;;;23.50;14.25;;;0.10;99.90;;;;;;5033117;28;20407;-79
2021/11/24 07:27:08;;;;;;;24.73;13.57;;;0.20;99.90;;;;;;5022136;28;20033;-79
2021/11/24 07:29:34;;;;;;;22.50;12.60;;;0.10;99.90;;;;;;5037833;28;20049;-79
2021/11/24 07:31:59;;;;;;;28.25;14.05;;;0.10;99.90;;;;;;5041911;28;20097;-79
2021/11/24 07:34:25;;;;;;;26.10;14.70;;;0.00;99.90;;;;;;5035133;28;20034;-78
2021/11/24 07:36:51;;;;;;;27.38;15.60;;;0.00;99.90;;;;;;5034039;28;20029;-79
2021/11/24 07:39:16;;;;;;;24.35;14.07;;;0.00;99.90;;;;;;5033064;28;20056;-78
2021/11/24 07:41:42;;;;;;;30.30;14.32;;;0.00;99.90;;;;;;5040950;28;20034;-79
2021/11/24 07:44:08;;;;;;;27.70;15.90;;;0.00;99.90;;;;;;5050894;28;20091;-79
2021/11/24 07:46:34;;;;;;;23.95;13.65;;;0.00;99.90;;;;;;5048310;28;20067;-79
2021/11/24 07:49:00;;;;;;;29.08;15.23;;;0.10;99.90;;;;;;5039078;28;20025;-79
2021/11/24 07:51:26;;;;;;;26.25;15.18;;;0.20;99.90;;;;;;5048594;28;20028;-79
2021/11/24 07:53:52;;;;;;;31.48;17.38;;;0.10;99.90;;;;;;5042013;28;20033;-78
2021/11/24 07:56:18;;;;;;;26.40;15.07;;;0.30;99.90;;;;;;5022694;28;20493;-79
2021/11/24 07:58:47;;;;;;;30.55;16.48;;;0.40;99.90;;;;;;5068991;28;20032;-78
2021/11/24 08:01:13;;;;;;;27.45;15.00;;;0.40;99.90;;;;;;5040476;28;20101;-78
2021/11/24 08:03:40;;;;;;;31.75;15.05;;;0.60;99.90;;;;;;5043092;28;20079;-78
2021/11/24 08:06:06;;;;;;;24.88;14.68;;;0.70;99.90;;;;;;5042669;28;20025;-78
2021/11/24 08:08:32;;;;;;;26.42;15.35;;;0.80;99.90;;;;;;5060639;28;20585;-77
2021/11/24 08:10:58;;;;;;;25.80;14.57;;;0.90;99.90;;;;;;5066760;28;20433;-78
2021/11/24 08:13:24;;;;;;;21.15;12.95;;;1.00;99.90;;;;;;5051073;28;20024;-78
2021/11/24 08:15:50;;;;;;;26.02;14.18;;;0.80;99.90;;;;;;5022305;28;20037;-78
2021/11/24 08:18:16;;;;;;;26.35;13.68;;;1.00;99.90;;;;;;5067364;28;20112;-78
2021/11/24 08:20:42;;;;;;;22.38;14.13;;;1.10;99.90;;;;;;5042067;28;20029;-78
2021/11/24 08:23:08;;;;;;;27.05;14.73;;;1.20;99.90;;;;;;5019628;28;20037;-77
2021/11/24 08:25:34;;;;;;;22.67;13.25;;;1.20;99.90;;;;;;5037889;28;20033;-77
2021/11/24 08:28:00;;;;;;;24.55;12.48;;;1.30;99.90;;;;;;5033326;28;20036;-77
2021/11/24 08:30:27;;;;;;;20.35;12.10;;;2.60;99.90;;;;;;5033848;28;20049;-77
2021/11/24 08:32:53;;;;;;;24.98;12.50;;;1.40;99.90;;;;;;5032025;28;20030;-77
2021/11/24 08:35:20;;;;;;;20.25;12.15;;;2.00;99.90;;;;;;5024008;28;20041;-77
2021/11/24 08:37:46;;;;;;;20.92;11.95;;;1.70;99.90;;;;;;5011931;28;20022;-77
2021/11/24 08:40:13;;;;;;;19.45;10.77;;;2.10;99.90;;;;;;5010125;28;20560;-77
2021/11/24 08:42:39;;;;;;;14.93;8.98;;;3.90;99.90;;;;;;5029828;28;20398;-77
2021/11/24 08:45:07;;;;;;;16.48;9.68;;;3.80;99.90;;;;;;5012765;28;20033;-77
2021/11/24 08:47:34;;;;;;;13.38;8.68;;;4.00;99.90;;;;;;5030040;28;20053;-77
2021/11/24 08:50:00;;;;;;;12.63;7.93;;;4.50;99.90;;;;;;5024247;28;20033;-77
2021/11/24 08:52:26;;;;;;;11.85;8.23;;;4.90;99.90;;;;;;5000630;28;20313;-77
2021/11/24 08:54:51;;;;;;;13.43;7.78;;;5.60;99.90;;;;;;5016950;28;20084;-76
2021/11/24 08:57:17;;;;;;;9.57;6.72;;;6.50;99.90;;;;;;5008685;28;20072;-77
2021/11/24 08:59:43;;;;;;;12.07;7.32;;;7.90;99.90;;;;;;5009528;28;20033;-77
2021/11/24 09:02:09;;;;;;;12.13;7.50;;;7.80;99.90;;;;;;5012935;28;20092;-77
2021/11/24 09:04:35;;;;;;;11.40;6.78;;;9.30;99.90;;;;;;5029452;28;20108;-77
2021/11/24 09:07:02;;;;;;;14.32;7.43;;;8.80;99.90;;;;;;5029810;28;20033;-77
2021/11/24 09:09:27;;;;;;;15.25;6.93;;;9.00;99.90;;;;;;5028045;28;20038;-77
2021/11/24 09:11:53;;;;;;;10.88;6.18;;;9.40;99.90;;;;;;5028564;28;20027;-78
2021/11/24 09:14:19;;;;;;;11.60;7.05;;;;;;;;;;5010557;28;20033;-77
2021/11/24 09:16:45;;;;;;;8.82;6.07;;;;;;;;;;5009611;28;20022;-77
2021/11/24 09:19:11;;;;;;;10.63;6.20;;;;;;;;;;5015053;28;20386;-77
2021/11/24 09:21:38;;;;;;;10.35;6.15;;;;;;;;;;4998253;28;20038;-77
2021/11/24 09:24:05;;;;;;;8.90;5.45;;;;;;;;;;5017104;28;20042;-77
2021/11/24 09:26:42;;;;;;;11.02;6.28;;;;;;;;;;5030489;28;20486;-77
2021/11/24 09:29:09;;;;;;;7.57;5.43;;;;;;;;;;5014991;28;20038;-77
2021/11/24 09:31:36;;;;;;;8.93;5.43;;;;;;;;;;5031096;28;20076;-77
2021/11/24 09:34:01;;;;;;;9.63;5.88;;;9.40;99.90;;;;;;5031426;28;20536;-78
2021/11/24 09:36:27;;;;;;;8.82;6.13;;;11.80;94.30;;;;;;5018449;28;20037;-78
2021/11/24 09:38:53;;;;;;;9.13;5.80;;;12.80;93.60;;;;;;5022761;28;20025;-78
2021/11/24 09:41:22;;;;;;;10.45;6.00;;;;;;;;;;5017580;28;20025;-78
2021/11/24 09:43:50;;;;;;;8.90;5.15;;;12.50;94.30;;;;;;5014800;28;20022;-77
2021/11/24 09:46:17;;;;;;;9.15;5.25;;;10.20;96.20;;;;;;5019371;28;20033;-78
2021/11/24 09:48:45;;;;;;;8.05;5.40;;;9.50;97.70;;;;;;5029850;28;20038;-77
2021/11/24 09:51:14;;;;;;;8.43;5.22;;;9.10;99.40;;;;;;5031022;28;20070;-78
2021/11/24 09:53:42;;;;;;;5.97;4.50;;;9.00;99.90;;;;;;5031000;28;20036;-77
2021/11/24 09:56:08;;;;;;;6.90;5.38;;;9.10;99.90;;;;;;5030591;28;20049;-77
2021/11/24 09:58:34;;;;;;;6.15;4.60;;;10.40;99.00;;;;;;5015198;28;20030;-77
2021/11/24 10:01:00;;;;;;;6.78;5.30;;;9.90;98.00;;;;;;5025610;28;20133;-77
2021/11/24 10:03:26;;;;;;;8.68;4.90;;;11.00;98.50;;;;;;5024271;28;20030;-77
2021/11/24 10:05:52;;;;;;;9.48;5.20;;;11.10;98.20;;;;;;5022896;28;20045;-77
2021/11/24 10:08:18;;;;;;;7.03;5.05;;;11.70;96.60;;;;;;5029589;28;20029;-77
2021/11/24 10:10:44;;;;;;;7.65;5.07;;;10.10;96.90;;;;;;5029292;28;20030;-77
2021/11/24 10:13:10;;;;;;;10.15;5.00;;;10.40;96.40;;;;;;5029977;28;20030;-77
2021/11/24 10:15:42;;;;;;;6.90;5.15;;;10.50;96.30;;;;;;5021935;28;20022;-77
2021/11/24 10:18:27;;;;;;;7.60;5.65;;;10.50;94.90;;;;;;5007296;28;20030;-77
2021/11/24 10:20:57;;;;;;;8.18;5.20;;;10.50;95.20;;;;;;4989918;28;20026;-77
2021/11/24 10:23:26;;;;;;;10.45;5.45;;;10.60;95.10;;;;;;5022615;28;20498;-77
2021/11/24 10:25:53;;;;;;;8.23;5.25;;;11.40;94.10;;;;;;5014242;28;20038;-78
2021/11/24 10:28:27;;;;;;;7.32;5.00;;;11.50;94.00;;;;;;5012474;28;20037;-78
2021/11/24 10:30:55;;;;;;;7.20;5.30;;;10.50;95.10;;;;;;4990577;28;20040;-78
2021/11/24 10:33:26;;;;;;;9.70;6.63;;;11.20;96.30;;;;;;5007294;28;20029;-78
2021/11/24 10:36:13;;;;;;;9.48;5.60;;;10.70;95.80;;;;;;5009104;28;20127;-78
2021/11/24 10:38:45;;;;;;;6.82;5.45;;;10.70;93.70;;;;;;5007849;28;20853;-78
2021/11/24 10:41:12;;;;;;;8.30;5.53;;;9.00;97.00;;;;;;5007170;28;20453;-78
2021/11/24 10:43:43;;;;;;;9.00;6.03;;;7.80;99.90;;;;;;5022972;28;20040;-77
2021/11/24 10:46:10;;;;;;;11.63;6.68;;;7.10;99.90;;;;;;5018887;28;20026;-77
2021/11/24 10:48:37;;;;;;;11.25;6.60;;;6.80;99.90;;;;;;5026681;28;20021;-77
2021/11/24 10:51:30;;;;;;;10.48;7.55;;;6.20;99.90;;;;;;5025402;28;20038;-77
2021/11/24 10:54:11;;;;;;;10.20;7.20;;;5.60;99.90;;;;;;5021972;28;20482;-78
2021/11/24 10:57:00;;;;;;;11.05;7.25;;;5.40;99.90;;;;;;5021771;28;20030;-78
2021/11/24 10:59:25;;;;;;;12.05;7.65;;;5.10;99.90;;;;;;5026397;28;20533;-77
2021/11/24 11:01:52;;;;;;;13.55;8.30;;;6.40;99.90;;;;;;5015701;28;20038;-77
2021/11/24 11:04:18;;;;;;;9.68;7.20;;;5.00;99.90;;;;;;5030427;28;20021;-77
2021/11/24 11:06:44;;;;;;;12.07;7.68;;;5.40;99.90;;;;;;5014374;28;20407;-77
2021/11/24 11:09:09;;;;;;;10.65;7.40;;;4.90;99.90;;;;;;5011556;28;20046;-77
2021/11/24 11:11:37;;;;;;;12.32;8.43;;;4.90;99.90;;;;;;5010223;28;20045;-78
2021/11/24 11:14:21;;;;;;;9.43;7.10;;;5.00;99.90;;;;;;5011157;28;20050;-77
2021/11/24 11:16:55;;;;;;;9.73;6.53;;;5.80;99.90;;;;;;5011086;28;20029;-77
2021/11/24 11:19:36;;;;;;;9.90;6.53;;;9.10;99.90;;;;;;5011608;28;20022;-77
2021/11/24 11:22:02;;;;;;;8.45;6.85;;;8.20;99.90;;;;;;5010359;28;20108;-77
2021/11/24 11:24:27;;;;;;;10.13;6.78;;;9.40;99.90;;;;;;5011319;28;20081;-77
2021/11/24 11:26:53;;;;;;;7.78;5.57;;;11.80;99.90;;;;;;5011628;28;20066;-77
2021/11/24 11:29:21;;;;;;;8.65;6.07;;;11.10;99.00;;;;;;5019709;28;20063;-77
2021/11/24 11:31:47;;;;;;;8.80;6.68;;;11.50;97.20;;;;;;5030415;28;20021;-76
2021/11/24 11:34:14;;;;;;;9.35;5.97;;;11.20;96.40;;;;;;5029910;28;20026;-77
2021/11/24 11:36:42;;;;;;;7.50;5.75;;;12.80;95.90;;;;;;5030373;28;20391;-77
2021/11/24 11:39:08;;;;;;;8.10;6.28;;;13.00;95.70;;;;;;5023265;28;20034;-77
2021/11/24 11:41:36;;;;;;;7.50;5.30;;;12.20;94.80;;;;;;5010181;28;20437;-78
2021/11/24 11:44:02;;;;;;;9.35;5.90;;;;;;;;;;5010707;28;20103;-77
2021/11/24 11:46:33;;;;;;;7.65;5.72;;;12.90;94.10;;;;;;5026570;28;20047;-77
2021/11/24 11:49:11;;;;;;;7.20;5.35;;;13.00;90.20;;;;;;5028076;28;20041;-77
2021/11/24 11:51:39;;;;;;;6.93;5.30;;;13.60;90.00;;;;;;5029073;28;20028;-76
2021/11/24 11:54:06;;;;;;;6.95;5.57;;;12.80;88.70;;;;;;5011997;28;20597;-77
2021/11/24 11:56:41;;;;;;;8.93;5.70;;;12.50;90.50;;;;;;5029509;28;20037;-76
2021/11/24 11:59:08;;;;;;;7.68;5.15;;;12.00;91.10;;;;;;5026852;28;20034;-77
2021/11/24 12:01:42;;;;;;;8.63;5.75;;;12.70;91.60;;;;;;5027747;28;20517;-77
2021/11/24 12:04:17;;;;;;;6.80;5.28;;;12.40;91.30;;;;;;5013458;28;20076;-77
2021/11/24 12:06:52;;;;;;;7.22;5.50;;;12.50;89.60;;;;;;5012229;28;20078;-77
2021/11/24 12:09:25;;;;;;;7.25;5.05;;;13.60;89.80;;;;;;5024900;28;20022;-77
2021/11/24 12:12:01;;;;;;;7.55;5.60;;;13.60;84.80;;;;;;5029542;28;20494;-77
2021/11/24 12:14:45;;;;;;;7.93;5.10;;;;;;;;;;5031315;28;20144;-77
2021/11/24 12:17:31;;;;;;;7.50;5.43;;;;;;;;;;5023921;28;20037;-77
2021/11/24 12:20:12;;;;;;;6.60;4.68;;;;;;;;;;5014709;28;20018;-77
2021/11/24 12:23:00;;;;;;;7.25;5.28;;;;;;;;;;5008915;28;20112;-76
2021/11/24 12:25:26;;;;;;;6.90;4.70;;;;;;;;;;5009623;28;20022;-77
2021/11/24 12:27:52;;;;;;;7.28;5.07;;;;;;;;;;5013336;28;20025;-77
2021/11/24 12:33:14;;;;;;;7.28;4.50;;;;;;;;;;5017631;28;20033;-77
2021/11/24 12:35:42;;;;;;;6.47;4.50;;;;;;;;;;5012038;28;20057;-76
2021/11/24 12:38:08;;;;;;;7.18;4.28;;;;;;;;;;5020407;28;20025;-77
2021/11/24 12:40:36;;;;;;;7.82;4.85;;;;;;;;;;5027118;28;20116;-76
2021/11/24 12:43:07;;;;;;;9.80;5.00;;;;;;;;;;5018949;28;20030;-76
2021/11/24 12:45:34;;;;;;;6.47;5.07;;;;;;;;;;5012049;28;20022;-77